sensor_id;sensor_type;location;lat;lon;timestamp;pressure;altitude;pressure_sealevel;temperature;humidity
57799;BME280;43626;53.866;30.298;2022-08-05T00:00:08;1026.3;;;21.4;57.6
57799;BME280;43626;53.866;30.298;2022-08-05T00:05:08;1026.3;;;21.4;57.5
57799;BME280;43626;53.866;30.298;2022-08-05T00:10:08;1026.3;;;21.4;57.5
57799;BME280;43626;53.866;30.298;2022-08-05T00:15:08;1026.3;;;21.3;57.6
57799;BME280;43626;53.866;30.298;2022-08-05T00:20:08;1026.3;;;21.3;57.8
57799;BME280;43626;53.866;30.298;2022-08-05T00:25:08;1026.3;;;21.3;58
57799;BME280;43626;53.866;30.298;2022-08-05T00:30:08;1026.3;;;21.2;58.3
57799;BME280;43626;53.866;30.298;2022-08-05T00:35:08;1026.4;;;21.1;58.6
57799;BME280;43626;53.866;30.298;2022-08-05T00:40:08;1026.4;;;21;58.4
57799;BME280;43626;53.866;30.298;2022-08-05T00:45:08;1026.3;;;20.9;58.5
57799;BME280;43626;53.866;30.298;2022-08-05T00:50:08;1026.4;;;20.9;58.6
57799;BME280;43626;53.866;30.298;2022-08-05T00:55:08;1026.4;;;20.9;58.5
57799;BME280;43626;53.866;30.298;2022-08-05T01:00:08;1026.4;;;20.9;58.5
57799;BME280;43626;53.866;30.298;2022-08-05T01:05:08;1026.3;;;20.9;58.6
57799;BME280;43626;53.866;30.298;2022-08-05T01:10:09;1026.3;;;20.8;58.7
57799;BME280;43626;53.866;30.298;2022-08-05T01:15:08;1026.3;;;20.8;59
57799;BME280;43626;53.866;30.298;2022-08-05T01:20:12;1026.3;;;20.8;58.9
57799;BME280;43626;53.866;30.298;2022-08-05T01:30:08;1026.3;;;20.7;59.2
57799;BME280;43626;53.866;30.298;2022-08-05T01:35:09;1026.2;;;20.6;59
57799;BME280;43626;53.866;30.298;2022-08-05T01:40:08;1026.2;;;20.6;59.1
57799;BME280;43626;53.866;30.298;2022-08-05T01:45:08;1026.2;;;20.7;58.9
57799;BME280;43626;53.866;30.298;2022-08-05T01:50:10;1026.1;;;20.7;58.8
57799;BME280;43626;53.866;30.298;2022-08-05T01:55:08;1026.2;;;20.7;58.6
57799;BME280;43626;53.866;30.298;2022-08-05T02:00:08;1026.2;;;20.7;58.6
57799;BME280;43626;53.866;30.298;2022-08-05T02:05:09;1026.2;;;20.7;58.7
57799;BME280;43626;53.866;30.298;2022-08-05T02:10:08;1026.2;;;20.8;58.4
57799;BME280;43626;53.866;30.298;2022-08-05T02:15:11;1026.2;;;20.8;58.3
57799;BME280;43626;53.866;30.298;2022-08-05T02:20:10;1026.2;;;20.8;58.2
57799;BME280;43626;53.866;30.298;2022-08-05T02:25:11;1026.3;;;20.8;58.2
57799;BME280;43626;53.866;30.298;2022-08-05T02:30:09;1026.3;;;20.8;58.2
57799;BME280;43626;53.866;30.298;2022-08-05T02:35:10;1026.2;;;20.7;58.2
57799;BME280;43626;53.866;30.298;2022-08-05T02:40:08;1026.2;;;20.8;58.1
57799;BME280;43626;53.866;30.298;2022-08-05T02:45:08;1026.2;;;20.8;58
57799;BME280;43626;53.866;30.298;2022-08-05T02:50:08;1026.3;;;20.8;58
57799;BME280;43626;53.866;30.298;2022-08-05T02:55:08;1026.3;;;20.9;58
57799;BME280;43626;53.866;30.298;2022-08-05T03:00:08;1026.3;;;20.8;58.1
57799;BME280;43626;53.866;30.298;2022-08-05T03:05:09;1026.3;;;20.8;58.1
57799;BME280;43626;53.866;30.298;2022-08-05T03:10:08;1026.4;;;20.8;58.2
57799;BME280;43626;53.866;30.298;2022-08-05T03:15:08;1026.3;;;20.8;58.3
57799;BME280;43626;53.866;30.298;2022-08-05T03:20:08;1026.3;;;20.8;58.4
57799;BME280;43626;53.866;30.298;2022-08-05T03:25:08;1026.3;;;20.9;58
57799;BME280;43626;53.866;30.298;2022-08-05T03:30:08;1026.3;;;21.1;57.8
57799;BME280;43626;53.866;30.298;2022-08-05T03:35:08;1026.3;;;21.1;57.7
57799;BME280;43626;53.866;30.298;2022-08-05T03:40:08;1026.5;;;21.2;57.6
57799;BME280;43626;53.866;30.298;2022-08-05T03:45:08;1026.5;;;21.2;57.7
57799;BME280;43626;53.866;30.298;2022-08-05T03:50:08;1026.4;;;21.2;57.7
57799;BME280;43626;53.866;30.298;2022-08-05T03:55:09;1026.4;;;21.2;57.8
57799;BME280;43626;53.866;30.298;2022-08-05T04:00:10;1026.3;;;21.2;57.8
57799;BME280;43626;53.866;30.298;2022-08-05T04:05:08;1026.3;;;21.1;58.1
57799;BME280;43626;53.866;30.298;2022-08-05T04:10:08;1026.3;;;21.2;58.1
57799;BME280;43626;53.866;30.298;2022-08-05T04:15:09;1026.3;;;21.2;58.2
57799;BME280;43626;53.866;30.298;2022-08-05T04:20:15;1026.4;;;21.2;58.4
57799;BME280;43626;53.866;30.298;2022-08-05T04:25:08;1026.3;;;21.3;58.3
57799;BME280;43626;53.866;30.298;2022-08-05T04:30:08;1026.3;;;21.4;58
57799;BME280;43626;53.866;30.298;2022-08-05T04:35:08;1026.3;;;21.6;57.9
57799;BME280;43626;53.866;30.298;2022-08-05T04:40:08;1026.3;;;21.8;57.8
57799;BME280;43626;53.866;30.298;2022-08-05T04:45:08;1026.4;;;21.9;57.6
57799;BME280;43626;53.866;30.298;2022-08-05T04:50:08;1026.5;;;22;57.4
57799;BME280;43626;53.866;30.298;2022-08-05T04:55:08;1026.6;;;22.1;57.6
57799;BME280;43626;53.866;30.298;2022-08-05T05:00:08;1026.5;;;22.3;57.3
57799;BME280;43626;53.866;30.298;2022-08-05T05:05:08;1026.4;;;22.4;56.8
57799;BME280;43626;53.866;30.298;2022-08-05T05:10:08;1026.4;;;22.4;57
57799;BME280;43626;53.866;30.298;2022-08-05T05:15:08;1026.4;;;22.5;56.6
57799;BME280;43626;53.866;30.298;2022-08-05T05:20:09;1026.4;;;22.6;56.6
57799;BME280;43626;53.866;30.298;2022-08-05T05:25:08;1026.4;;;22.7;56.4
57799;BME280;43626;53.866;30.298;2022-08-05T05:30:08;1026.3;;;22.8;56.3
57799;BME280;43626;53.866;30.298;2022-08-05T05:35:08;1026.3;;;22.9;56.3
57799;BME280;43626;53.866;30.298;2022-08-05T05:40:08;1026.4;;;23.1;56.2
57799;BME280;43626;53.866;30.298;2022-08-05T05:45:08;1026.3;;;23.2;56.2
57799;BME280;43626;53.866;30.298;2022-08-05T05:50:09;1026.3;;;23.4;55.9
57799;BME280;43626;53.866;30.298;2022-08-05T05:55:09;1026.3;;;23.5;56.1
57799;BME280;43626;53.866;30.298;2022-08-05T06:00:09;1026.4;;;23.6;55.6
57799;BME280;43626;53.866;30.298;2022-08-05T06:05:09;1026.4;;;23.6;55.3
57799;BME280;43626;53.866;30.298;2022-08-05T06:10:08;1026.4;;;23.7;55.5
57799;BME280;43626;53.866;30.298;2022-08-05T06:15:08;1026.4;;;23.8;55.5
57799;BME280;43626;53.866;30.298;2022-08-05T06:20:08;1026.4;;;23.9;55.1
57799;BME280;43626;53.866;30.298;2022-08-05T06:25:08;1026.4;;;24;55.2
57799;BME280;43626;53.866;30.298;2022-08-05T06:30:08;1026.4;;;24.1;55
57799;BME280;43626;53.866;30.298;2022-08-05T06:35:08;1026.4;;;24.2;55
57799;BME280;43626;53.866;30.298;2022-08-05T06:40:08;1026.4;;;24.3;54.9
57799;BME280;43626;53.866;30.298;2022-08-05T06:45:08;1026.4;;;24.5;54.5
57799;BME280;43626;53.866;30.298;2022-08-05T06:50:09;1026.4;;;24.6;53.8
57799;BME280;43626;53.866;30.298;2022-08-05T06:55:08;1026.4;;;24.7;53.6
57799;BME280;43626;53.866;30.298;2022-08-05T07:00:08;1026.3;;;24.9;53.1
57799;BME280;43626;53.866;30.298;2022-08-05T07:05:08;1026.4;;;25.1;53
57799;BME280;43626;53.866;30.298;2022-08-05T07:10:08;1026.4;;;25.2;52
57799;BME280;43626;53.866;30.298;2022-08-05T07:15:08;1026.4;;;25.4;51.8
57799;BME280;43626;53.866;30.298;2022-08-05T07:20:08;1026.4;;;25.6;51.8
57799;BME280;43626;53.866;30.298;2022-08-05T07:25:08;1026.4;;;25.8;51.2
57799;BME280;43626;53.866;30.298;2022-08-05T07:30:08;1026.4;;;26;50.4
57799;BME280;43626;53.866;30.298;2022-08-05T07:35:09;1026.4;;;26.2;49.5
57799;BME280;43626;53.866;30.298;2022-08-05T07:40:08;1026.4;;;26.3;48.8
57799;BME280;43626;53.866;30.298;2022-08-05T07:45:08;1026.3;;;26.4;47.1
57799;BME280;43626;53.866;30.298;2022-08-05T07:50:08;1026.3;;;26.4;46.5
57799;BME280;43626;53.866;30.298;2022-08-05T07:55:08;1026.4;;;26.5;46.7
57799;BME280;43626;53.866;30.298;2022-08-05T08:00:08;1026.3;;;26.6;46.8
57799;BME280;43626;53.866;30.298;2022-08-05T08:05:09;1026.3;;;26.7;46.1
57799;BME280;43626;53.866;30.298;2022-08-05T08:10:08;1026.3;;;26.8;46
57799;BME280;43626;53.866;30.298;2022-08-05T08:15:09;1026.3;;;27;46.1
57799;BME280;43626;53.866;30.298;2022-08-05T08:20:08;1026.3;;;27;46
57799;BME280;43626;53.866;30.298;2022-08-05T08:25:08;1026.3;;;27.1;45.8
57799;BME280;43626;53.866;30.298;2022-08-05T08:30:08;1026.2;;;27.2;45.5
57799;BME280;43626;53.866;30.298;2022-08-05T08:35:08;1026.2;;;27.2;44.9
57799;BME280;43626;53.866;30.298;2022-08-05T08:40:08;1026.2;;;27.3;43.8
57799;BME280;43626;53.866;30.298;2022-08-05T08:45:08;1026.2;;;27.4;43.7
57799;BME280;43626;53.866;30.298;2022-08-05T08:50:08;1026.2;;;27.6;43.5
57799;BME280;43626;53.866;30.298;2022-08-05T08:55:08;1026.2;;;27.8;43.1
57799;BME280;43626;53.866;30.298;2022-08-05T09:00:08;1026.2;;;27.9;42
57799;BME280;43626;53.866;30.298;2022-08-05T09:05:09;1026.1;;;28;42.4
57799;BME280;43626;53.866;30.298;2022-08-05T09:10:08;1026.2;;;28.1;42
57799;BME280;43626;53.866;30.298;2022-08-05T09:15:08;1026.2;;;28.2;41.7
57799;BME280;43626;53.866;30.298;2022-08-05T09:20:09;1026.2;;;28.3;41.5
57799;BME280;43626;53.866;30.298;2022-08-05T09:25:08;1026.2;;;28.3;41.2
57799;BME280;43626;53.866;30.298;2022-08-05T09:30:08;1026.2;;;28.5;41.2
57799;BME280;43626;53.866;30.298;2022-08-05T09:35:09;1026.2;;;28.6;40.6
57799;BME280;43626;53.866;30.298;2022-08-05T09:40:08;1026.1;;;28.7;40.2
57799;BME280;43626;53.866;30.298;2022-08-05T09:45:08;1026;;;28.7;40.1
57799;BME280;43626;53.866;30.298;2022-08-05T09:50:08;1026;;;28.8;40.2
57799;BME280;43626;53.866;30.298;2022-08-05T09:55:09;1026;;;28.9;40.4
57799;BME280;43626;53.866;30.298;2022-08-05T10:00:09;1025.9;;;29;39.6
57799;BME280;43626;53.866;30.298;2022-08-05T10:05:10;1025.9;;;29.1;39.6
57799;BME280;43626;53.866;30.298;2022-08-05T10:10:08;1025.8;;;29.2;39.8
57799;BME280;43626;53.866;30.298;2022-08-05T10:15:12;1025.8;;;29.2;39.8
57799;BME280;43626;53.866;30.298;2022-08-05T10:20:08;1025.7;;;29.2;39.5
57799;BME280;43626;53.866;30.298;2022-08-05T10:25:08;1025.8;;;29.3;39.4
57799;BME280;43626;53.866;30.298;2022-08-05T10:30:08;1025.8;;;29.4;39.6
57799;BME280;43626;53.866;30.298;2022-08-05T10:35:08;1025.8;;;29.4;39.2
57799;BME280;43626;53.866;30.298;2022-08-05T10:40:20;1025.8;;;29.4;39.7
57799;BME280;43626;53.866;30.298;2022-08-05T10:45:08;1025.8;;;29.4;39.3
57799;BME280;43626;53.866;30.298;2022-08-05T10:50:10;1025.8;;;29.3;39.5
57799;BME280;43626;53.866;30.298;2022-08-05T10:55:09;1025.7;;;29.4;39.5
57799;BME280;43626;53.866;30.298;2022-08-05T11:00:13;1025.7;;;29.3;40
57799;BME280;43626;53.866;30.298;2022-08-05T11:05:08;1025.7;;;29.6;40.2
57799;BME280;43626;53.866;30.298;2022-08-05T11:10:11;1025.7;;;29.8;39.8
57799;BME280;43626;53.866;30.298;2022-08-05T11:15:40;1025.6;;;29.9;38.9
57799;BME280;43626;53.866;30.298;2022-08-05T11:20:30;1025.6;;;29.8;38.5
57799;BME280;43626;53.866;30.298;2022-08-05T11:25:40;1025.5;;;29.9;38.9
57799;BME280;43626;53.866;30.298;2022-08-05T11:30:08;1025.5;;;30;38.4
57799;BME280;43626;53.866;30.298;2022-08-05T11:35:08;1025.5;;;30.2;38.2
57799;BME280;43626;53.866;30.298;2022-08-05T11:40:08;1025.5;;;30.2;37.5
57799;BME280;43626;53.866;30.298;2022-08-05T11:45:08;1025.5;;;30.3;38.1
57799;BME280;43626;53.866;30.298;2022-08-05T11:50:08;1025.4;;;30.6;37.4
57799;BME280;43626;53.866;30.298;2022-08-05T11:55:08;1025.4;;;30.8;37.8
57799;BME280;43626;53.866;30.298;2022-08-05T12:00:26;1025.4;;;31.1;37.6
57799;BME280;43626;53.866;30.298;2022-08-05T12:05:08;1025.3;;;31.1;37.3
57799;BME280;43626;53.866;30.298;2022-08-05T12:10:09;1025.3;;;31.1;37
57799;BME280;43626;53.866;30.298;2022-08-05T12:15:17;1025.3;;;31;35.8
57799;BME280;43626;53.866;30.298;2022-08-05T12:20:08;1025.3;;;30.8;36
57799;BME280;43626;53.866;30.298;2022-08-05T12:25:08;1025.3;;;30.9;36.7
57799;BME280;43626;53.866;30.298;2022-08-05T12:30:09;1025.2;;;31;36.5
57799;BME280;43626;53.866;30.298;2022-08-05T12:35:08;1025.3;;;30.6;36.5
57799;BME280;43626;53.866;30.298;2022-08-05T12:40:08;1025.3;;;30.4;37.2
57799;BME280;43626;53.866;30.298;2022-08-05T12:45:08;1025.2;;;30.5;37.4
57799;BME280;43626;53.866;30.298;2022-08-05T12:50:12;1025.2;;;30.7;37.4
57799;BME280;43626;53.866;30.298;2022-08-05T12:55:18;1025.1;;;30.9;36.9
57799;BME280;43626;53.866;30.298;2022-08-05T13:00:18;1025.1;;;30.8;36.6
57799;BME280;43626;53.866;30.298;2022-08-05T13:05:08;1025.1;;;30.6;37.7
57799;BME280;43626;53.866;30.298;2022-08-05T13:10:09;1025.1;;;30.7;36.8
57799;BME280;43626;53.866;30.298;2022-08-05T13:15:09;1025.1;;;31;36.4
57799;BME280;43626;53.866;30.298;2022-08-05T13:20:09;1025;;;31.2;36.1
57799;BME280;43626;53.866;30.298;2022-08-05T13:25:09;1025;;;31.4;36.3
57799;BME280;43626;53.866;30.298;2022-08-05T13:30:09;1025;;;31.2;36.6
57799;BME280;43626;53.866;30.298;2022-08-05T13:35:08;1024.9;;;31.1;36.7
57799;BME280;43626;53.866;30.298;2022-08-05T13:40:08;1024.9;;;31.2;36.5
57799;BME280;43626;53.866;30.298;2022-08-05T13:45:08;1024.8;;;31.3;36.6
57799;BME280;43626;53.866;30.298;2022-08-05T13:50:08;1024.9;;;31.3;35.4
57799;BME280;43626;53.866;30.298;2022-08-05T13:55:08;1024.8;;;31.4;35.3
57799;BME280;43626;53.866;30.298;2022-08-05T14:00:08;1024.8;;;31.6;35.7
57799;BME280;43626;53.866;30.298;2022-08-05T14:05:08;1024.8;;;31.7;35.1
57799;BME280;43626;53.866;30.298;2022-08-05T14:10:10;1024.9;;;31.7;35.1
57799;BME280;43626;53.866;30.298;2022-08-05T14:15:09;1024.9;;;31.3;35.6
57799;BME280;43626;53.866;30.298;2022-08-05T14:20:09;1024.9;;;31;36.1
57799;BME280;43626;53.866;30.298;2022-08-05T14:25:08;1024.8;;;30.6;36.6
57799;BME280;43626;53.866;30.298;2022-08-05T14:30:08;1024.8;;;30.2;37.4
57799;BME280;43626;53.866;30.298;2022-08-05T14:35:08;1024.8;;;30;37.9
57799;BME280;43626;53.866;30.298;2022-08-05T14:40:08;1024.8;;;30.3;37.9
57799;BME280;43626;53.866;30.298;2022-08-05T14:45:08;1024.7;;;30.6;37.3
57799;BME280;43626;53.866;30.298;2022-08-05T14:50:08;1024.7;;;30.8;36.5
57799;BME280;43626;53.866;30.298;2022-08-05T14:55:08;1024.7;;;31.1;36.3
57799;BME280;43626;53.866;30.298;2022-08-05T15:00:08;1024.7;;;31.5;35.9
57799;BME280;43626;53.866;30.298;2022-08-05T15:05:08;1024.7;;;31.6;35.4
57799;BME280;43626;53.866;30.298;2022-08-05T15:10:08;1024.8;;;31.6;35.2
57799;BME280;43626;53.866;30.298;2022-08-05T15:15:08;1024.8;;;31.8;35.3
57799;BME280;43626;53.866;30.298;2022-08-05T15:20:09;1024.8;;;32;35.3
57799;BME280;43626;53.866;30.298;2022-08-05T15:25:08;1024.9;;;32.2;35.2
57799;BME280;43626;53.866;30.298;2022-08-05T15:30:08;1024.9;;;32.6;34.8
57799;BME280;43626;53.866;30.298;2022-08-05T15:35:08;1025;;;32.8;34.6
57799;BME280;43626;53.866;30.298;2022-08-05T15:40:08;1025;;;32.6;34.4
57799;BME280;43626;53.866;30.298;2022-08-05T15:45:08;1025.1;;;32.4;34.6
57799;BME280;43626;53.866;30.298;2022-08-05T15:50:09;1025;;;32.3;35
57799;BME280;43626;53.866;30.298;2022-08-05T15:55:09;1025;;;32.6;34.6
57799;BME280;43626;53.866;30.298;2022-08-05T16:00:08;1024.9;;;32.6;34.4
57799;BME280;43626;53.866;30.298;2022-08-05T16:05:08;1025;;;32.7;34.2
57799;BME280;43626;53.866;30.298;2022-08-05T16:10:08;1025;;;32.9;34.1
57799;BME280;43626;53.866;30.298;2022-08-05T16:15:08;1025.1;;;33.1;33.8
57799;BME280;43626;53.866;30.298;2022-08-05T16:20:08;1025;;;33;33.8
57799;BME280;43626;53.866;30.298;2022-08-05T16:25:08;1025.1;;;33.2;33.7
57799;BME280;43626;53.866;30.298;2022-08-05T16:30:08;1025.1;;;32.9;33.7
57799;BME280;43626;53.866;30.298;2022-08-05T16:35:08;1025.1;;;33;33.7
57799;BME280;43626;53.866;30.298;2022-08-05T16:40:08;1025.1;;;32.9;33.7
57799;BME280;43626;53.866;30.298;2022-08-05T16:45:08;1025.1;;;32.9;33.8
57799;BME280;43626;53.866;30.298;2022-08-05T16:50:08;1025.2;;;32.4;34.7
57799;BME280;43626;53.866;30.298;2022-08-05T16:55:08;1025.2;;;32;35.7
57799;BME280;43626;53.866;30.298;2022-08-05T17:00:08;1025.2;;;31.6;36.6
57799;BME280;43626;53.866;30.298;2022-08-05T17:05:09;1025.2;;;31.3;37.1
57799;BME280;43626;53.866;30.298;2022-08-05T17:10:08;1025.1;;;30.9;37.8
57799;BME280;43626;53.866;30.298;2022-08-05T17:15:08;1025.1;;;30.5;39.1
57799;BME280;43626;53.866;30.298;2022-08-05T17:20:08;1025.1;;;30.3;39.6
57799;BME280;43626;53.866;30.298;2022-08-05T17:25:08;1025.2;;;30.7;39
57799;BME280;43626;53.866;30.298;2022-08-05T17:30:08;1025.2;;;31;38.4
57799;BME280;43626;53.866;30.298;2022-08-05T17:35:09;1025.2;;;30.5;39.2
57799;BME280;43626;53.866;30.298;2022-08-05T17:40:09;1025.3;;;29.9;40.2
57799;BME280;43626;53.866;30.298;2022-08-05T17:45:08;1025.4;;;29.4;41
57799;BME280;43626;53.866;30.298;2022-08-05T17:50:08;1025.4;;;29.1;41.8
57799;BME280;43626;53.866;30.298;2022-08-05T17:55:08;1025.4;;;28.8;43.3
57799;BME280;43626;53.866;30.298;2022-08-05T18:00:08;1025.5;;;28.5;44.2
57799;BME280;43626;53.866;30.298;2022-08-05T18:05:08;1025.5;;;28.3;44.9
57799;BME280;43626;53.866;30.298;2022-08-05T18:10:09;1025.6;;;28.1;45.6
57799;BME280;43626;53.866;30.298;2022-08-05T18:15:08;1025.6;;;27.9;46
57799;BME280;43626;53.866;30.298;2022-08-05T18:20:08;1025.7;;;27.8;46.1
57799;BME280;43626;53.866;30.298;2022-08-05T18:25:08;1025.7;;;27.6;46.3
57799;BME280;43626;53.866;30.298;2022-08-05T18:30:08;1025.8;;;27.5;46.6
57799;BME280;43626;53.866;30.298;2022-08-05T18:35:08;1025.8;;;27.4;47
57799;BME280;43626;53.866;30.298;2022-08-05T18:40:08;1025.8;;;27.3;47.4
57799;BME280;43626;53.866;30.298;2022-08-05T18:45:08;1025.8;;;27.1;48.3
57799;BME280;43626;53.866;30.298;2022-08-05T18:50:08;1025.9;;;26.9;48.8
57799;BME280;43626;53.866;30.298;2022-08-05T18:55:08;1025.9;;;26.8;49.2
57799;BME280;43626;53.866;30.298;2022-08-05T19:00:09;1025.9;;;26.7;49.7
57799;BME280;43626;53.866;30.298;2022-08-05T19:05:09;1025.9;;;26.6;49.9
57799;BME280;43626;53.866;30.298;2022-08-05T19:10:08;1025.9;;;26.6;49.8
57799;BME280;43626;53.866;30.298;2022-08-05T19:15:08;1025.9;;;26.5;49.8
57799;BME280;43626;53.866;30.298;2022-08-05T19:20:08;1025.9;;;26.5;49.9
57799;BME280;43626;53.866;30.298;2022-08-05T19:25:08;1025.9;;;26.4;50
57799;BME280;43626;53.866;30.298;2022-08-05T19:30:08;1025.9;;;26.4;50.2
57799;BME280;43626;53.866;30.298;2022-08-05T19:35:08;1025.8;;;26.3;50.6
57799;BME280;43626;53.866;30.298;2022-08-05T19:40:08;1025.9;;;26.2;51.3
57799;BME280;43626;53.866;30.298;2022-08-05T19:45:08;1025.9;;;26;51.7
57799;BME280;43626;53.866;30.298;2022-08-05T19:50:08;1025.8;;;25.9;52
57799;BME280;43626;53.866;30.298;2022-08-05T19:55:08;1025.8;;;25.8;52.2
57799;BME280;43626;53.866;30.298;2022-08-05T20:00:08;1025.8;;;25.7;52.4
57799;BME280;43626;53.866;30.298;2022-08-05T20:05:08;1025.8;;;25.6;52.4
57799;BME280;43626;53.866;30.298;2022-08-05T20:10:08;1025.8;;;25.6;52.4
57799;BME280;43626;53.866;30.298;2022-08-05T20:15:08;1025.8;;;25.6;52.4
57799;BME280;43626;53.866;30.298;2022-08-05T20:20:08;1025.8;;;25.5;52.5
57799;BME280;43626;53.866;30.298;2022-08-05T20:25:08;1025.7;;;25.5;52.6
57799;BME280;43626;53.866;30.298;2022-08-05T20:30:08;1025.7;;;25.5;52.9
57799;BME280;43626;53.866;30.298;2022-08-05T20:35:08;1025.7;;;25.4;53.4
57799;BME280;43626;53.866;30.298;2022-08-05T20:40:08;1025.7;;;25.2;53.8
57799;BME280;43626;53.866;30.298;2022-08-05T20:45:08;1025.7;;;25;54.4
57799;BME280;43626;53.866;30.298;2022-08-05T20:50:08;1025.7;;;24.9;54.8
57799;BME280;43626;53.866;30.298;2022-08-05T20:55:08;1025.7;;;24.7;55.2
57799;BME280;43626;53.866;30.298;2022-08-05T21:00:08;1025.7;;;24.6;55.3
57799;BME280;43626;53.866;30.298;2022-08-05T21:05:08;1025.6;;;24.6;55.5
57799;BME280;43626;53.866;30.298;2022-08-05T21:10:08;1025.6;;;24.5;55.7
57799;BME280;43626;53.866;30.298;2022-08-05T21:15:08;1025.5;;;24.5;55.8
57799;BME280;43626;53.866;30.298;2022-08-05T21:20:08;1025.5;;;24.4;55.9
57799;BME280;43626;53.866;30.298;2022-08-05T21:25:08;1025.5;;;24.4;56.2
57799;BME280;43626;53.866;30.298;2022-08-05T21:30:08;1025.5;;;24.3;56.5
57799;BME280;43626;53.866;30.298;2022-08-05T21:35:08;1025.5;;;24.2;56.9
57799;BME280;43626;53.866;30.298;2022-08-05T21:40:08;1025.5;;;24.1;57.2
57799;BME280;43626;53.866;30.298;2022-08-05T21:45:08;1025.5;;;24;57.6
57799;BME280;43626;53.866;30.298;2022-08-05T21:50:08;1025.5;;;23.9;57.8
57799;BME280;43626;53.866;30.298;2022-08-05T21:55:08;1025.5;;;23.8;58.1
57799;BME280;43626;53.866;30.298;2022-08-05T22:00:09;1025.4;;;23.8;57.9
57799;BME280;43626;53.866;30.298;2022-08-05T22:05:09;1025.4;;;23.7;57.9
57799;BME280;43626;53.866;30.298;2022-08-05T22:10:09;1025.4;;;23.6;57.9
57799;BME280;43626;53.866;30.298;2022-08-05T22:15:09;1025.4;;;23.6;58
57799;BME280;43626;53.866;30.298;2022-08-05T22:20:09;1025.4;;;23.5;58.1
57799;BME280;43626;53.866;30.298;2022-08-05T22:25:08;1025.4;;;23.5;58.4
57799;BME280;43626;53.866;30.298;2022-08-05T22:30:11;1025.5;;;23.4;58.8
57799;BME280;43626;53.866;30.298;2022-08-05T22:35:08;1025.5;;;23.4;59.1
57799;BME280;43626;53.866;30.298;2022-08-05T22:40:08;1025.5;;;23.3;59
57799;BME280;43626;53.866;30.298;2022-08-05T22:45:08;1025.5;;;23.2;58.8
57799;BME280;43626;53.866;30.298;2022-08-05T22:50:08;1025.5;;;23.2;59
57799;BME280;43626;53.866;30.298;2022-08-05T22:55:08;1025.5;;;23.2;58.9
57799;BME280;43626;53.866;30.298;2022-08-05T23:00:08;1025.5;;;23.2;58.9
57799;BME280;43626;53.866;30.298;2022-08-05T23:05:08;1025.4;;;23.2;59
57799;BME280;43626;53.866;30.298;2022-08-05T23:10:08;1025.5;;;23.2;59
57799;BME280;43626;53.866;30.298;2022-08-05T23:15:08;1025.5;;;23.2;59.1
57799;BME280;43626;53.866;30.298;2022-08-05T23:20:09;1025.4;;;23.2;59.2
57799;BME280;43626;53.866;30.298;2022-08-05T23:25:08;1025.4;;;23.2;59.4
57799;BME280;43626;53.866;30.298;2022-08-05T23:30:08;1025.4;;;23.1;59.4
57799;BME280;43626;53.866;30.298;2022-08-05T23:35:08;1025.4;;;23.1;59.4
57799;BME280;43626;53.866;30.298;2022-08-05T23:40:08;1025.4;;;23;59.6
57799;BME280;43626;53.866;30.298;2022-08-05T23:45:08;1025.4;;;22.9;59.4
57799;BME280;43626;53.866;30.298;2022-08-05T23:50:09;1025.4;;;22.9;59.5
57799;BME280;43626;53.866;30.298;2022-08-05T23:55:08;1025.3;;;22.8;59.4
